地図

経路データ

SID SEASON NUMBER BASIN SUBBASIN NAME ISO_TIME NATURE LAT LON WMO_WIND WMO_PRES WMO_AGENCY TRACK_TYPE DIST2LAND LANDFALL IFLAG USA_AGENCY USA_ATCF_ID USA_LAT USA_LON USA_RECORD USA_STATUS USA_WIND USA_PRES USA_SSHS USA_R34_NE USA_R34_SE USA_R34_SW USA_R34_NW USA_R50_NE USA_R50_SE USA_R50_SW USA_R50_NW USA_R64_NE USA_R64_SE USA_R64_SW USA_R64_NW USA_POCI USA_ROCI USA_RMW USA_EYE TOKYO_LAT TOKYO_LON TOKYO_GRADE TOKYO_WIND TOKYO_PRES TOKYO_R50_DIR TOKYO_R50_LONG TOKYO_R50_SHORT TOKYO_R30_DIR TOKYO_R30_LONG TOKYO_R30_SHORT TOKYO_LAND CMA_LAT CMA_LON CMA_CAT CMA_WIND CMA_PRES HKO_LAT HKO_LON HKO_CAT HKO_WIND HKO_PRES NEWDELHI_LAT NEWDELHI_LON NEWDELHI_GRADE NEWDELHI_WIND NEWDELHI_PRES NEWDELHI_CI NEWDELHI_DP NEWDELHI_POCI REUNION_LAT REUNION_LON REUNION_TYPE REUNION_WIND REUNION_PRES REUNION_TNUM REUNION_CI REUNION_RMW REUNION_R34_NE REUNION_R34_SE REUNION_R34_SW REUNION_R34_NW REUNION_R50_NE REUNION_R50_SE REUNION_R50_SW REUNION_R50_NW REUNION_R64_NE REUNION_R64_SE REUNION_R64_SW REUNION_R64_NW BOM_LAT BOM_LON BOM_TYPE BOM_WIND BOM_PRES BOM_TNUM BOM_CI BOM_RMW BOM_R34_NE BOM_R34_SE BOM_R34_SW BOM_R34_NW BOM_R50_NE BOM_R50_SE BOM_R50_SW BOM_R50_NW BOM_R64_NE BOM_R64_SE BOM_R64_SW BOM_R64_NW BOM_ROCI BOM_POCI BOM_EYE BOM_POS_METHOD BOM_PRES_METHOD NADI_LAT NADI_LON NADI_CAT NADI_WIND NADI_PRES WELLINGTON_LAT WELLINGTON_LON WELLINGTON_WIND WELLINGTON_PRES DS824_LAT DS824_LON DS824_STAGE DS824_WIND DS824_PRES TD9636_LAT TD9636_LON TD9636_STAGE TD9636_WIND TD9636_PRES TD9635_LAT TD9635_LON TD9635_WIND TD9635_PRES TD9635_ROCI NEUMANN_LAT NEUMANN_LON NEUMANN_CLASS NEUMANN_WIND NEUMANN_PRES MLC_LAT MLC_LON MLC_CLASS MLC_WIND MLC_PRES USA_GUST BOM_GUST BOM_GUST_PER REUNION_GUST REUNION_GUST_PER USA_SEAHGT USA_SEARAD_NE USA_SEARAD_SE USA_SEARAD_SW USA_SEARAD_NW STORM_SPEED STORM_DIR
1883021S26054 1883 3 SI MM NOT_NAMED 1883-01-21 06:00:00 NR -26.4000 54.0000 main 581 581 __________O___ -1 -26.4000 54.0000 7 14 198
1883021S26054 1883 3 SI MM NOT_NAMED 1883-01-21 09:00:00 NR -27.0521 53.7681 main 662 662 __________P___ -1 -27.0521 53.7681 7 14 197
1883021S26054 1883 3 SI MM NOT_NAMED 1883-01-21 12:00:00 NR -27.7032 53.5477 main 704 704 __________P___ -1 -27.7032 53.5477 7 14 196
1883021S26054 1883 3 SI MM NOT_NAMED 1883-01-21 15:00:00 NR -28.3526 53.3534 main 731 722 __________P___ -1 -28.3526 53.3534 7 13 193
1883021S26054 1883 3 SI MM NOT_NAMED 1883-01-21 18:00:00 NR -29.0000 53.2000 main 750 750 __________O___ -1 -29.0000 53.2000 7 13 190
1883021S26054 1883 3 SI MM NOT_NAMED 1883-01-21 21:00:00 NR -29.6425 53.0996 main 783 783 __________P___ -1 -29.6425 53.0996 7 13 186
1883021S26054 1883 3 SI MM NOT_NAMED 1883-01-22 00:00:00 NR -30.2671 53.0519 main 834 827 __________P___ -1 -30.2671 53.0519 7 12 182
1883021S26054 1883 3 SI MM NOT_NAMED 1883-01-22 03:00:00 NR -30.8582 53.0532 main 881 881 __________P___ -1 -30.8582 53.0532 7 11 178
1883021S26054 1883 3 SI MM NOT_NAMED 1883-01-22 06:00:00 NR -31.4000 53.1000 main 922 922 __________O___ -1 -31.4000 53.1000 7 10 174
1883021S26054 1883 3 SI MM NOT_NAMED 1883-01-22 09:00:00 NR -31.8793 53.1733 main 970 970 __________P___ -1 -31.8793 53.1733 7 9 170
1883021S26054 1883 3 SI MM NOT_NAMED 1883-01-22 12:00:00 NR -32.3099 53.2896 main 1010 1010 __________P___ -1 -32.3099 53.2896 7 9 165
1883021S26054 1883 3 SI MM NOT_NAMED 1883-01-22 15:00:00 NR -32.7106 53.4362 main 1051 1051 __________P___ -1 -32.7106 53.4362 7 8 162
1883021S26054 1883 3 SI MM NOT_NAMED 1883-01-22 18:00:00 NR -33.1000 53.6000 main 1098 1098 __________O___ -1 -33.1000 53.6000 7 8 162
1883021S26054 1883 3 SI MM NOT_NAMED 1883-01-22 21:00:00 NR -33.4702 53.7265 main 1139 1139 __________P___ -1 -33.4702 53.7265 7 8 163
1883021S26054 1883 3 SI MM NOT_NAMED 1883-01-23 00:00:00 NR -33.8393 53.8715 main 1177 1177 __________P___ -1 -33.8393 53.8715 7 8 160
1883021S26054 1883 3 SI MM NOT_NAMED 1883-01-23 03:00:00 NR -34.2387 54.0556 main 1224 1224 __________P___ -1 -34.2387 54.0556 7 9 158
1883021S26054 1883 3 SI MM NOT_NAMED 1883-01-23 06:00:00 NR -34.7000 54.3000 main 1280 1280 __________O___ -1 -34.7000 54.3000 7 12 156
1883021S26054 1883 3 SI MM NOT_NAMED 1883-01-23 09:00:00 NR -35.2890 54.6252 main 1350 1350 __________P___ -1 -35.2890 54.6252 7 14 155
1883021S26054 1883 3 SI MM NOT_NAMED 1883-01-23 12:00:00 NR -35.9353 55.0147 main 1426 1426 __________P___ -1 -35.9353 55.0147 7 15 153
1883021S26054 1883 3 SI MM NOT_NAMED 1883-01-23 15:00:00 NR -36.5889 55.4474 main 1510 1510 __________P___ -1 -36.5889 55.4474 7 15 151
1883021S26054 1883 3 SI MM NOT_NAMED 1883-01-23 18:00:00 NR -37.2000 55.9000 main 1590 1590 __________O___ -1 -37.2000 55.9000 7 14 148
1883021S26054 1883 3 SI MM NOT_NAMED 1883-01-23 21:00:00 NR -37.7312 56.3524 main 1589 1524 __________P___ -1 -37.7312 56.3524 7 12 144
1883021S26054 1883 3 SI MM NOT_NAMED 1883-01-24 00:00:00 NR -38.1932 56.8016 main 1524 1467 __________P___ -1 -38.1932 56.8016 7 11 141
1883021S26054 1883 3 SI MM NOT_NAMED 1883-01-24 03:00:00 NR -38.6087 57.2499 main 1467 1406 __________P___ -1 -38.6087 57.2499 7 11 139
1883021S26054 1883 3 SI MM NOT_NAMED 1883-01-24 06:00:00 NR -39.0000 57.7000 main 1406 __________O___ -1 -39.0000 57.7000 7 11 138

IBTrACS Databaseについて

本データベースは、米国NOAAが公開する1842年以降の世界の熱帯低気圧のベストトラックデータアーカイブInternational Best Track Archive for Climate Stewardship (IBTrACS)を、ウェブで閲覧しやすい形式に変換したものです。

最終更新日:2021-11-26